KFYV

Drake Field Airport

Fayetteville, Arkansas, USA
METAR KFYV 190253Z 21005KT 10SM CLR 01/M14 A3023 RMK AO2 SLP246 T00111144 58002
Observed Flight Rules
Jan-19 @ 02:53 UTC (44 minutes ago) Visual Flight Rules
Wind Visibility Clouds
210° at 5 knots 10 miles
  • Clear skies
Temperatures Readings
Current 1°C / 34°F
Dewpoint -14°C / 7°F
Humidity 32%
Altimeter 30.23" Hg
Pressure 1024.6 hPa
Elevation 379
METAR KFYV 190253Z 21005KT 10SM CLR 01/M14 A3023 RMK AO2 SLP246 T00111144 58002
Observed Flight Rules
Jan-19 @ 02:53 UTC
(44 minutes ago)
VFR
Wind Visibility
210° at 5 knots 10 miles
Clouds
  • Clear skies
Temperature Dewpoint
1°C / 34°F -14°C / 7°F
Humidity Altimeter Pressure
32% 30.23" Hg 1024.6 hPa